createdAt,value
2023-03-02T00:00:19.031Z,66.20
2023-03-02T00:02:46.980Z,66.57
2023-03-02T00:05:14.873Z,61.90
2023-03-02T00:07:44.102Z,63.45
2023-03-02T00:10:12.274Z,60.80
2023-03-02T00:12:40.097Z,65.78
2023-03-02T00:15:08.470Z,57.95
2023-03-02T00:17:37.290Z,59.67
2023-03-02T00:20:12.138Z,59.38
2023-03-02T00:22:40.564Z,62.42
2023-03-02T00:25:10.995Z,58.92
2023-03-02T00:27:38.885Z,59.88
2023-03-02T00:30:07.982Z,68.45
2023-03-02T00:32:35.955Z,70.35
2023-03-02T00:35:03.824Z,72.45
2023-03-02T00:37:33.935Z,68.97
2023-03-02T00:40:01.805Z,66.10
2023-03-02T00:42:31.173Z,58.35
2023-03-02T00:45:01.475Z,69.53
2023-03-02T00:47:29.810Z,67.68
2023-03-02T00:49:57.883Z,66.65
2023-03-02T00:52:25.827Z,61.25
2023-03-02T00:54:53.606Z,65.95
2023-03-02T00:57:21.803Z,59.45
2023-03-02T00:59:51.076Z,63.05
2023-03-02T01:02:29.047Z,60.92
2023-03-02T01:04:57.043Z,60.22
2023-03-02T01:07:26.214Z,58.17
2023-03-02T01:09:54.156Z,56.22
2023-03-02T01:12:21.938Z,57.75
2023-03-02T01:14:51.489Z,58.42
2023-03-02T01:17:22.143Z,58.65
2023-03-02T01:19:49.942Z,60.50
2023-03-02T01:22:17.830Z,56.28
2023-03-02T01:24:45.632Z,54.03
2023-03-02T01:27:13.487Z,59.42
2023-03-02T01:29:41.816Z,60.03
2023-03-02T01:32:10.939Z,57.40
2023-03-02T01:34:39.155Z,53.38
2023-03-02T01:37:07.444Z,59.22
2023-03-02T01:39:35.283Z,68.00
2023-03-02T01:42:03.033Z,55.13
2023-03-02T01:44:38.474Z,56.88
2023-03-02T01:47:13.776Z,64.90
2023-03-02T01:49:49.997Z,62.63
2023-03-02T01:52:18.326Z,62.42
2023-03-02T01:54:49.863Z,58.42
2023-03-02T01:57:22.258Z,61.83
2023-03-02T01:59:51.448Z,59.03
2023-03-02T02:02:19.638Z,64.22
2023-03-02T02:04:48.752Z,56.03
2023-03-02T02:07:18.041Z,61.08
2023-03-02T02:09:47.245Z,61.35
2023-03-02T02:12:16.167Z,61.88
2023-03-02T02:14:44.666Z,62.28
2023-03-02T02:17:12.823Z,57.45
2023-03-02T02:20:01.616Z,59.83
2023-03-02T02:22:36.087Z,61.42
2023-03-02T02:25:10.860Z,61.85
2023-03-02T02:27:40.478Z,59.10
2023-03-02T02:30:09.090Z,58.10
2023-03-02T02:32:38.863Z,62.20
2023-03-02T02:35:11.788Z,57.65
2023-03-02T02:37:40.552Z,61.75
2023-03-02T02:40:13.664Z,65.45
2023-03-02T02:42:44.451Z,62.60
2023-03-02T02:45:19.618Z,59.72
2023-03-02T02:47:48.040Z,58.58
2023-03-02T02:50:18.365Z,56.33
2023-03-02T02:52:48.495Z,62.33
2023-03-02T02:55:17.616Z,63.72
2023-03-02T02:57:47.404Z,57.10
2023-03-02T03:00:19.463Z,66.38
2023-03-02T03:02:48.676Z,61.40
2023-03-02T03:05:17.407Z,60.20
2023-03-02T03:07:45.899Z,53.42
2023-03-02T03:10:16.750Z,62.08
2023-03-02T03:12:45.091Z,58.50
2023-03-02T03:15:15.050Z,56.53
2023-03-02T03:17:47.827Z,57.58
2023-03-02T03:20:17.181Z,63.08
2023-03-02T03:22:45.942Z,56.63
2023-03-02T03:25:15.371Z,60.13
2023-03-02T03:27:45.585Z,62.85
2023-03-02T03:30:17.185Z,60.97
2023-03-02T03:32:45.466Z,64.03
2023-03-02T03:35:15.574Z,56.47
2023-03-02T03:37:44.339Z,60.08
2023-03-02T03:40:12.758Z,60.03
2023-03-02T03:42:43.829Z,54.83
2023-03-02T03:45:11.786Z,59.08
2023-03-02T03:47:41.779Z,63.63
2023-03-02T03:50:11.364Z,65.70
2023-03-02T03:52:39.954Z,58.63
2023-03-02T03:55:16.432Z,62.17
2023-03-02T03:57:46.513Z,55.92
2023-03-02T04:00:16.704Z,62.70
2023-03-02T04:02:51.729Z,58.53
2023-03-02T04:05:20.388Z,63.47
2023-03-02T04:07:51.661Z,66.07
2023-03-02T04:10:20.987Z,61.88
2023-03-02T04:12:51.962Z,55.42
2023-03-02T04:15:19.796Z,60.47
2023-03-02T04:17:49.006Z,57.50
2023-03-02T04:20:21.425Z,59.03
2023-03-02T04:22:53.089Z,60.72
2023-03-02T04:25:28.196Z,58.03
2023-03-02T04:28:01.398Z,59.90
2023-03-02T04:30:33.872Z,59.55
2023-03-02T04:33:01.716Z,58.65
2023-03-02T04:35:31.946Z,56.28
2023-03-02T04:38:01.585Z,58.70
2023-03-02T04:40:29.415Z,56.65
2023-03-02T04:42:57.111Z,59.78
2023-03-02T04:45:24.895Z,65.10
2023-03-02T04:47:52.569Z,63.10
2023-03-02T04:50:20.231Z,60.45
2023-03-02T04:52:50.095Z,61.03
2023-03-02T04:55:20.313Z,63.72
2023-03-02T04:57:48.106Z,57.17
2023-03-02T05:00:16.890Z,60.78
2023-03-02T05:02:44.830Z,60.60
2023-03-02T05:05:15.588Z,61.67
2023-03-02T05:07:44.662Z,65.40
2023-03-02T05:10:14.772Z,64.53
2023-03-02T05:12:58.138Z,61.95
2023-03-02T05:15:27.133Z,61.47
2023-03-02T05:17:54.894Z,62.90
2023-03-02T05:20:27.394Z,61.70
2023-03-02T05:22:56.039Z,57.60
2023-03-02T05:25:25.459Z,59.45
2023-03-02T05:27:53.856Z,62.85
2023-03-02T05:30:22.050Z,62.28
2023-03-02T05:32:49.901Z,61.85
2023-03-02T05:35:18.973Z,66.55
2023-03-02T05:37:46.790Z,61.10
2023-03-02T05:40:15.674Z,64.47
2023-03-02T05:42:45.257Z,63.30
2023-03-02T05:45:18.105Z,57.97
2023-03-02T05:47:45.846Z,65.30
2023-03-02T05:50:13.504Z,64.95
2023-03-02T05:52:41.600Z,62.45
2023-03-02T05:55:10.037Z,65.80
2023-03-02T05:57:37.762Z,70.97
2023-03-02T06:00:08.530Z,66.65
2023-03-02T06:02:40.252Z,67.13
2023-03-02T06:05:09.330Z,66.28
2023-03-02T06:07:37.137Z,73.75
2023-03-02T06:10:04.872Z,75.07
2023-03-02T06:12:33.180Z,73.85
2023-03-02T06:15:00.976Z,76.90
2023-03-02T06:17:30.038Z,78.97
2023-03-02T06:19:57.827Z,80.45
2023-03-02T06:22:25.509Z,86.05
2023-03-02T06:24:55.180Z,100.13
2023-03-02T06:27:22.941Z,91.78
2023-03-02T06:29:50.711Z,91.03
2023-03-02T06:32:18.791Z,82.13
2023-03-02T06:34:48.233Z,91.55
2023-03-02T06:37:15.915Z,81.78
2023-03-02T06:39:43.761Z,80.72
2023-03-02T06:42:11.549Z,85.28
2023-03-02T06:44:39.255Z,88.18
2023-03-02T06:47:06.988Z,81.70
2023-03-02T06:49:34.676Z,92.65
2023-03-02T06:52:03.761Z,88.13
2023-03-02T06:54:31.475Z,85.28
2023-03-02T06:56:59.176Z,87.47
2023-03-02T06:59:27.321Z,86.13
2023-03-02T07:01:55.203Z,82.35
2023-03-02T07:04:22.854Z,86.20
2023-03-02T07:06:50.570Z,88.32
2023-03-02T07:09:19.616Z,78.53
2023-03-02T07:11:47.598Z,82.63
2023-03-02T07:14:15.330Z,77.60
2023-03-02T07:16:43.092Z,80.25
2023-03-02T07:19:13.093Z,81.78
2023-03-02T07:21:40.767Z,79.47
2023-03-02T07:24:08.945Z,83.22
2023-03-02T07:26:38.321Z,74.88
2023-03-02T07:29:06.021Z,78.28
2023-03-02T07:31:34.006Z,81.18
2023-03-02T07:34:01.862Z,75.30
2023-03-02T07:36:30.077Z,74.10
2023-03-02T07:38:57.737Z,80.57
2023-03-02T07:41:25.645Z,82.60
2023-03-02T07:43:54.862Z,82.28
2023-03-02T07:46:22.567Z,79.68
2023-03-02T07:48:50.295Z,55.83
2023-03-02T07:51:18.007Z,48.13
2023-03-02T07:53:45.724Z,49.90
2023-03-02T07:56:13.643Z,63.10
2023-03-02T07:58:41.401Z,62.17
2023-03-02T08:01:10.472Z,58.20
2023-03-02T08:03:38.196Z,58.03
2023-03-02T08:06:06.938Z,56.72
2023-03-02T08:08:35.014Z,59.92
2023-03-02T08:11:06.348Z,63.38
2023-03-02T08:13:34.081Z,53.88
2023-03-02T08:16:02.450Z,56.55
2023-03-02T08:18:31.844Z,50.38
2023-03-02T08:20:59.967Z,51.78
2023-03-02T08:23:27.948Z,46.20
2023-03-02T08:25:56.227Z,56.67
2023-03-02T08:28:24.246Z,57.78
2023-03-02T08:30:57.989Z,66.18
2023-03-02T08:33:25.818Z,62.75
2023-03-02T08:35:58.546Z,63.58
2023-03-02T08:38:26.450Z,58.65
2023-03-02T08:40:54.374Z,58.90
2023-03-02T08:43:22.930Z,56.33
2023-03-02T08:45:52.471Z,58.75
2023-03-02T08:48:20.360Z,53.47
2023-03-02T08:50:54.957Z,53.92
2023-03-02T08:53:24.061Z,56.85
2023-03-02T08:55:52.111Z,49.00
2023-03-02T08:58:20.068Z,51.58
2023-03-02T09:00:47.830Z,52.47
2023-03-02T09:03:15.942Z,47.83
2023-03-02T09:05:44.009Z,54.10
2023-03-02T09:08:12.281Z,49.75
2023-03-02T09:10:41.361Z,89.30
2023-03-02T09:13:09.128Z,62.28
2023-03-02T09:15:37.086Z,58.88
2023-03-02T09:18:04.962Z,57.13
2023-03-02T09:20:34.003Z,58.70
2023-03-02T09:23:01.769Z,54.60
2023-03-02T09:25:30.176Z,56.38
2023-03-02T09:27:59.165Z,54.20
2023-03-02T09:30:26.792Z,56.70
2023-03-02T09:32:54.607Z,61.63
2023-03-02T09:35:22.433Z,60.67
2023-03-02T09:37:50.087Z,60.35
2023-03-02T09:40:19.842Z,62.50
2023-03-02T09:42:56.891Z,63.97
2023-03-02T09:45:34.962Z,61.58
2023-03-02T09:48:12.167Z,66.05
2023-03-02T09:50:41.345Z,63.13
2023-03-02T09:53:15.728Z,61.28
2023-03-02T09:55:54.271Z,63.47
2023-03-02T09:58:23.038Z,61.42
2023-03-02T10:00:52.366Z,63.55
2023-03-02T10:03:21.472Z,62.50
2023-03-02T10:05:50.679Z,56.67
2023-03-02T10:08:20.820Z,59.92
2023-03-02T10:10:52.661Z,58.75
2023-03-02T10:13:23.222Z,56.40
2023-03-02T10:15:57.177Z,53.38
2023-03-02T10:18:29.299Z,44.35
2023-03-02T10:20:59.494Z,57.20
2023-03-02T10:23:42.402Z,54.30
2023-03-02T10:26:16.635Z,55.40
2023-03-02T10:28:47.206Z,56.47
2023-03-02T10:31:19.756Z,60.45
2023-03-02T10:33:48.264Z,55.42
2023-03-02T10:36:24.974Z,57.60
2023-03-02T10:38:53.263Z,56.97
2023-03-02T10:41:23.237Z,58.70
2023-03-02T10:43:52.738Z,73.78
2023-03-02T10:46:21.980Z,56.97
2023-03-02T10:48:53.942Z,59.60
2023-03-02T10:51:25.642Z,60.10
2023-03-02T10:54:03.617Z,60.55
2023-03-02T10:56:31.648Z,59.58
2023-03-02T10:59:03.290Z,51.15
2023-03-02T11:01:33.012Z,53.50
2023-03-02T11:04:01.983Z,55.35
2023-03-02T11:06:31.139Z,70.07
2023-03-02T11:09:00.076Z,51.75
2023-03-02T11:11:28.049Z,58.03
2023-03-02T11:13:56.921Z,56.13
2023-03-02T11:16:26.231Z,56.40
2023-03-02T11:18:56.853Z,56.33
2023-03-02T11:21:26.471Z,57.28
2023-03-02T11:23:58.878Z,50.72
2023-03-02T11:26:27.899Z,56.25
2023-03-02T11:28:59.624Z,54.75
2023-03-02T11:31:31.037Z,57.08
2023-03-02T11:34:18.191Z,55.92
2023-03-02T11:36:51.987Z,56.42
2023-03-02T11:39:23.566Z,52.33
2023-03-02T11:41:52.269Z,50.17
2023-03-02T11:44:21.332Z,60.78
2023-03-02T11:46:50.554Z,62.08
2023-03-02T11:49:20.588Z,57.45
2023-03-02T11:51:58.144Z,62.88
2023-03-02T11:54:36.754Z,60.08
2023-03-02T11:57:04.696Z,63.10
2023-03-02T11:59:33.911Z,57.60
2023-03-02T12:02:01.991Z,61.28
2023-03-02T12:04:32.651Z,61.58
2023-03-02T12:07:02.789Z,64.57
2023-03-02T12:09:33.244Z,59.78
2023-03-02T12:12:12.777Z,57.88
2023-03-02T12:14:41.446Z,53.30
2023-03-02T12:17:20.239Z,47.88
2023-03-02T12:19:48.776Z,52.72
2023-03-02T12:22:27.708Z,48.72
2023-03-02T12:25:01.514Z,47.25
2023-03-02T12:27:34.819Z,47.73
2023-03-02T12:30:12.446Z,48.38
2023-03-02T12:32:40.653Z,48.00
2023-03-02T12:35:12.026Z,46.50
2023-03-02T12:37:46.141Z,47.63
2023-03-02T12:40:28.494Z,45.13
2023-03-02T12:43:13.941Z,47.08
2023-03-02T12:45:47.203Z,50.03
2023-03-02T12:48:23.488Z,50.95
2023-03-02T12:50:52.429Z,43.03
2023-03-02T12:53:21.607Z,44.63
2023-03-02T12:55:49.366Z,45.95
2023-03-02T12:58:18.745Z,42.78
2023-03-02T13:00:51.022Z,43.25
2023-03-02T13:03:18.883Z,44.72
2023-03-02T13:05:47.595Z,45.38
2023-03-02T13:08:18.541Z,45.53
2023-03-02T13:10:50.741Z,44.40
2023-03-02T13:13:20.250Z,45.17
2023-03-02T13:15:48.801Z,50.70
2023-03-02T13:18:17.077Z,49.28
2023-03-02T13:20:44.996Z,49.50
2023-03-02T13:23:14.115Z,42.58
2023-03-02T13:25:48.635Z,44.72
2023-03-02T13:28:28.702Z,45.58
2023-03-02T13:30:57.507Z,43.83
2023-03-02T13:33:26.233Z,45.70
2023-03-02T13:35:54.165Z,50.05
2023-03-02T13:38:22.764Z,52.90
2023-03-02T13:40:51.666Z,47.63
2023-03-02T13:43:24.083Z,46.28
2023-03-02T13:45:55.135Z,42.47
2023-03-02T13:48:23.433Z,47.30
2023-03-02T13:50:53.000Z,49.30
2023-03-02T13:53:21.219Z,45.67
2023-03-02T13:55:49.134Z,47.78
2023-03-02T13:58:17.623Z,49.45
2023-03-02T14:00:45.876Z,47.38
2023-03-02T14:03:22.209Z,48.65
2023-03-02T14:05:50.260Z,47.33
2023-03-02T14:08:18.147Z,51.00
2023-03-02T14:10:46.020Z,47.42
2023-03-02T14:13:16.052Z,47.30
2023-03-02T14:15:47.043Z,53.20
2023-03-02T14:18:25.043Z,49.35
2023-03-02T14:20:52.846Z,50.30
2023-03-02T14:23:20.799Z,52.35
2023-03-02T14:25:48.650Z,45.22
2023-03-02T14:28:20.162Z,48.70
2023-03-02T14:30:48.100Z,49.65
2023-03-02T14:33:17.635Z,52.17
2023-03-02T14:35:48.191Z,49.45
2023-03-02T14:38:16.084Z,51.80
2023-03-02T14:40:43.958Z,52.25
2023-03-02T14:43:11.741Z,49.97
2023-03-02T14:45:39.533Z,56.00
2023-03-02T14:48:07.280Z,51.58
2023-03-02T14:50:38.327Z,53.03
2023-03-02T14:53:08.480Z,51.97
2023-03-02T14:55:37.049Z,51.08
2023-03-02T14:58:05.909Z,49.60
2023-03-02T15:00:33.791Z,52.78
2023-03-02T15:03:01.750Z,50.50
2023-03-02T15:05:29.560Z,53.25
2023-03-02T15:07:58.921Z,53.38
2023-03-02T15:10:28.266Z,53.35
2023-03-02T15:12:56.059Z,53.58
2023-03-02T15:15:25.016Z,62.70
2023-03-02T15:17:52.758Z,62.88
2023-03-02T15:20:20.554Z,62.63
2023-03-02T15:22:48.272Z,61.50
2023-03-02T15:25:16.172Z,59.08
2023-03-02T15:27:45.276Z,61.13
2023-03-02T15:30:13.289Z,57.30
2023-03-02T15:32:41.205Z,56.97
2023-03-02T15:35:09.320Z,60.90
2023-03-02T15:37:37.095Z,63.25
2023-03-02T15:40:05.388Z,65.82
2023-03-02T15:42:33.280Z,67.32
2023-03-02T15:45:02.423Z,66.88
2023-03-02T15:47:30.218Z,65.10
2023-03-02T15:49:58.026Z,63.72
2023-03-02T15:52:25.757Z,65.32
2023-03-02T15:54:53.456Z,67.05
2023-03-02T15:57:21.193Z,66.78
2023-03-02T15:59:49.552Z,60.53
2023-03-02T16:02:18.688Z,65.82
2023-03-02T16:04:46.881Z,64.25
2023-03-02T16:07:15.001Z,67.78
2023-03-02T16:09:45.311Z,63.67
2023-03-02T16:12:13.087Z,68.57
2023-03-02T16:14:40.877Z,67.53
2023-03-02T16:17:08.562Z,67.28
2023-03-02T16:19:37.766Z,71.55
2023-03-02T16:22:05.523Z,66.05
2023-03-02T16:24:33.294Z,64.22
2023-03-02T16:27:01.053Z,74.63
2023-03-02T16:29:28.941Z,71.45
2023-03-02T16:31:56.727Z,67.80
2023-03-02T16:34:24.568Z,71.80
2023-03-02T16:36:53.732Z,67.95
2023-03-02T16:39:21.553Z,72.57
2023-03-02T16:41:49.460Z,75.57
2023-03-02T16:44:17.414Z,79.75
2023-03-02T16:46:45.223Z,76.80
2023-03-02T16:49:13.356Z,88.78
2023-03-02T16:51:41.211Z,79.30
2023-03-02T16:54:11.178Z,82.88
2023-03-02T16:56:39.757Z,92.55
2023-03-02T16:59:07.560Z,95.43
2023-03-02T17:01:35.502Z,86.30
2023-03-02T17:04:05.861Z,92.43
2023-03-02T17:06:33.953Z,87.88
2023-03-02T17:09:02.029Z,89.25
2023-03-02T17:11:31.865Z,95.70
2023-03-02T17:13:59.635Z,103.88
2023-03-02T17:16:27.515Z,99.53
2023-03-02T17:18:55.302Z,97.38
2023-03-02T17:21:24.269Z,91.38
2023-03-02T17:23:52.551Z,93.35
2023-03-02T17:26:20.312Z,95.97
2023-03-02T17:28:49.422Z,99.07
2023-03-02T17:31:17.202Z,103.13
2023-03-02T17:33:44.930Z,97.20
2023-03-02T17:36:12.863Z,101.30
2023-03-02T17:38:40.704Z,94.53
2023-03-02T17:41:09.857Z,99.03
2023-03-02T17:43:39.205Z,95.13
2023-03-02T17:46:13.084Z,94.88
2023-03-02T17:48:41.029Z,90.65
2023-03-02T17:51:08.876Z,90.07
2023-03-02T17:53:36.659Z,101.78
2023-03-02T17:56:04.400Z,100.03
2023-03-02T17:58:44.207Z,104.50
2023-03-02T18:01:15.659Z,105.25
2023-03-02T18:03:45.169Z,100.25
2023-03-02T18:06:13.246Z,96.68
2023-03-02T18:08:41.089Z,104.97
2023-03-02T18:11:08.854Z,93.03
2023-03-02T18:13:36.516Z,94.85
2023-03-02T18:16:04.446Z,100.22
2023-03-02T18:18:33.660Z,102.03
2023-03-02T18:21:01.776Z,109.35
2023-03-02T18:23:29.501Z,103.28
2023-03-02T18:25:57.483Z,108.13
2023-03-02T18:28:25.254Z,104.65
2023-03-02T18:30:53.029Z,102.45
2023-03-02T18:33:20.798Z,100.95
2023-03-02T18:35:49.971Z,108.63
2023-03-02T18:38:17.886Z,105.05
2023-03-02T18:40:46.043Z,94.22
2023-03-02T18:43:13.794Z,110.85
2023-03-02T18:45:41.558Z,117.00
2023-03-02T18:48:09.290Z,99.93
2023-03-02T18:50:37.059Z,106.03
2023-03-02T18:53:06.353Z,108.30
2023-03-02T18:55:34.120Z,112.57
2023-03-02T18:58:01.816Z,104.68
2023-03-02T19:00:29.613Z,112.45
2023-03-02T19:02:57.595Z,111.15
2023-03-02T19:05:27.049Z,121.00
2023-03-02T19:07:55.199Z,117.05
2023-03-02T19:10:25.092Z,116.75
2023-03-02T19:12:52.791Z,119.65
2023-03-02T19:15:20.715Z,107.22
2023-03-02T19:17:51.725Z,112.53
2023-03-02T19:20:21.406Z,113.18
2023-03-02T19:22:49.110Z,118.65
2023-03-02T19:25:17.128Z,118.60
2023-03-02T19:27:46.307Z,110.28
2023-03-02T19:30:17.130Z,122.15
2023-03-02T19:32:44.943Z,115.32
2023-03-02T19:35:14.786Z,111.00
2023-03-02T19:37:42.620Z,114.88
2023-03-02T19:40:11.048Z,116.15
2023-03-02T19:42:39.597Z,114.18
2023-03-02T19:45:12.519Z,111.00
2023-03-02T19:47:40.291Z,109.05
2023-03-02T19:50:08.548Z,115.63
2023-03-02T19:52:37.432Z,113.15
2023-03-02T19:55:05.580Z,118.82
2023-03-02T19:57:33.474Z,128.10
2023-03-02T20:00:01.193Z,124.07
2023-03-02T20:02:35.963Z,121.75
2023-03-02T20:05:04.396Z,112.90
2023-03-02T20:07:32.369Z,125.95
2023-03-02T20:10:00.215Z,122.50
2023-03-02T20:12:28.376Z,125.32
2023-03-02T20:14:56.871Z,124.03
2023-03-02T20:17:24.856Z,126.10
2023-03-02T20:19:55.895Z,133.93
2023-03-02T20:22:25.850Z,126.60
2023-03-02T20:24:53.978Z,130.95
2023-03-02T20:27:22.511Z,133.43
2023-03-02T20:29:50.357Z,125.13
2023-03-02T20:32:18.218Z,131.50
2023-03-02T20:34:46.188Z,124.53
2023-03-02T20:37:16.021Z,127.60
2023-03-02T20:39:47.886Z,133.43
2023-03-02T20:42:15.920Z,135.60
2023-03-02T20:44:43.867Z,139.63
2023-03-02T20:47:13.509Z,138.20
2023-03-02T20:49:41.888Z,129.20
2023-03-02T20:52:10.966Z,135.85
2023-03-02T20:54:41.890Z,136.40
2023-03-02T20:57:09.773Z,137.38
2023-03-02T20:59:38.332Z,137.95
2023-03-02T21:02:06.482Z,142.60
2023-03-02T21:04:35.836Z,134.15
2023-03-02T21:07:03.514Z,140.25
2023-03-02T21:09:31.329Z,116.43
2023-03-02T21:12:00.324Z,128.70
2023-03-02T21:14:28.418Z,132.25
2023-03-02T21:16:56.181Z,138.98
2023-03-02T21:19:24.819Z,141.98
2023-03-02T21:21:54.775Z,142.55
2023-03-02T21:24:22.469Z,140.98
2023-03-02T21:26:51.229Z,126.95
2023-03-02T21:29:21.503Z,132.02
2023-03-02T21:31:49.240Z,140.02
2023-03-02T21:34:18.836Z,138.25
2023-03-02T21:36:47.398Z,141.63
2023-03-02T21:39:15.556Z,141.50
2023-03-02T21:41:43.276Z,135.27
2023-03-02T21:44:11.116Z,133.30
2023-03-02T21:46:40.358Z,138.48
2023-03-02T21:49:08.529Z,136.30
2023-03-02T21:51:36.304Z,139.55
2023-03-02T21:54:05.425Z,132.52
2023-03-02T21:56:33.261Z,135.63
2023-03-02T21:59:00.989Z,147.52
2023-03-02T22:01:29.778Z,136.70
2023-03-02T22:03:59.621Z,148.30
2023-03-02T22:06:28.173Z,150.02
2023-03-02T22:08:57.012Z,162.23
2023-03-02T22:11:25.762Z,170.55
2023-03-02T22:13:53.953Z,162.60
2023-03-02T22:16:22.983Z,158.65
2023-03-02T22:18:54.096Z,169.70
2023-03-02T22:21:28.082Z,165.43
2023-03-02T22:23:57.583Z,167.48
2023-03-02T22:26:25.261Z,173.65
2023-03-02T22:28:52.948Z,174.93
2023-03-02T22:31:21.967Z,178.95
2023-03-02T22:33:49.919Z,165.23
2023-03-02T22:36:20.911Z,155.07
2023-03-02T22:38:50.196Z,144.63
2023-03-02T22:41:18.902Z,147.15
2023-03-02T22:43:47.255Z,147.77
2023-03-02T22:46:17.644Z,154.48
2023-03-02T22:48:46.686Z,154.10
2023-03-02T22:51:15.728Z,154.82
2023-03-02T22:53:46.619Z,150.40
2023-03-02T22:56:25.162Z,149.07
2023-03-02T22:58:53.523Z,143.15
2023-03-02T23:01:22.393Z,137.00
2023-03-02T23:03:51.244Z,142.43
2023-03-02T23:06:27.219Z,145.88
2023-03-02T23:08:56.793Z,137.43
2023-03-02T23:11:26.182Z,150.32
2023-03-02T23:13:54.406Z,128.65
2023-03-02T23:16:23.426Z,129.50
2023-03-02T23:18:52.025Z,136.15
2023-03-02T23:21:20.698Z,131.27
2023-03-02T23:23:48.597Z,123.57
2023-03-02T23:26:19.570Z,133.68
2023-03-02T23:28:49.598Z,133.50
2023-03-02T23:31:18.360Z,126.20
2023-03-02T23:33:46.631Z,121.65
2023-03-02T23:36:14.385Z,128.82
2023-03-02T23:38:42.542Z,136.57
2023-03-02T23:41:10.508Z,127.05
2023-03-02T23:43:39.053Z,124.38
2023-03-02T23:46:08.200Z,120.15
2023-03-02T23:48:36.048Z,134.68
2023-03-02T23:51:03.785Z,124.65
2023-03-02T23:53:31.849Z,121.05
2023-03-02T23:56:00.276Z,123.65
2023-03-02T23:58:28.269Z,114.57
